Terminal Aerodrome Forecast
Issued by NWS

Home | Current Version | Previous Version | Text Only | Print | Product List | Glossary On
Versions: 1 2 3 4 5 6 7 8 9 10 11 12 13 14 15 16
000
FTUS43 KDVN 171731
TAFBRL
TAF
KBRL 171731Z 1718/1818 26013G17KT P6SM SCT035
     FM180000 28008KT P6SM FEW035
     FM181600 25007KT P6SM SCT035=

USA.gov is the U.S. government's official web portal to all federal, state and local government web resources and services.